Time;durP1;ratioP1;P1;durP2;ratioP2;P2;SDS_P1;SDS_P2;PMS_P1;PMS_P2;Temp;Humidity;BMP_temperature;BMP_pressure;BME280_temperature;BME280_humidity;BME280_pressure;Samples;Min_cycle;Max_cycle;Signal;HPM_P1;HPM_P2
2023/01/30 00:01:40;;;;;;;8.43;4.82;;;;;;;;;;5002806;28;20676;-81
2023/01/30 00:04:05;;;;;;;8.60;4.78;;;;;;;;;;5004456;28;20026;-81
2023/01/30 00:06:31;;;;;;;9.18;4.45;;;;;;;;;;5006074;28;20018;-82
2023/01/30 00:08:56;;;;;;;8.07;4.40;;;;;;;;;;5006022;28;20581;-81
2023/01/30 00:11:22;;;;;;;7.25;3.88;;;;;;;;;;5005216;28;20025;-81
2023/01/30 00:13:49;;;;;;;10.52;4.80;;;;;;;;;;5005848;28;20022;-82
2023/01/30 00:16:14;;;;;;;7.60;4.53;;;;;;;;;;5004349;28;20038;-79
2023/01/30 00:18:40;;;;;;;9.00;4.82;;;;;;;;;;5005399;28;20026;-81
2023/01/30 00:21:08;;;;;;;7.82;4.55;;;;;;;;;;5006369;28;20500;-81
2023/01/30 00:23:35;;;;;;;10.82;4.28;;;;;;;;;;5003693;28;20042;-81
2023/01/30 00:26:01;;;;;;;7.10;4.30;;;;;;;;;;5005905;28;20026;-82
2023/01/30 00:28:26;;;;;;;7.63;4.28;;;;;;;;;;5002665;28;20112;-81
2023/01/30 00:30:53;;;;;;;9.23;4.40;;;;;;;;;;5004692;28;20053;-83
2023/01/30 00:33:19;;;;;;;8.68;4.15;;;;;;;;;;5004641;28;20033;-82
2023/01/30 00:35:47;;;;;;;8.75;4.38;;;;;;;;;;5004183;28;20038;-80
2023/01/30 00:38:13;;;;;;;7.55;3.85;;;;;;;;;;5005035;28;20026;-80
2023/01/30 00:40:38;;;;;;;6.70;3.92;;;;;;;;;;5009953;28;20019;-81
2023/01/30 00:48:34;;;;;;;7.40;4.22;;;;;;;;;;5019249;28;20045;-80
2023/01/30 00:50:59;;;;;;;14.15;4.85;;;;;;;;;;5019070;28;20035;-81
2023/01/30 00:53:24;;;;;;;6.88;4.22;;;;;;;;;;5018097;28;20034;-81
2023/01/30 00:55:51;;;;;;;5.57;3.78;;;;;;;;;;5018008;28;20074;-81
2023/01/30 00:58:16;;;;;;;8.20;4.38;;;;;;;;;;5017982;28;20031;-83
2023/01/30 01:00:41;;;;;;;11.60;4.30;;;;;;;;;;5017097;28;20022;-82
2023/01/30 01:03:07;;;;;;;6.35;4.20;;;;;;;;;;5019032;28;20010;-82
2023/01/30 01:05:32;;;;;;;9.15;4.60;;;;;;;;;;5017061;28;20046;-82
2023/01/30 01:07:57;;;;;;;7.63;4.60;;;;;;;;;;5019168;28;20065;-82
2023/01/30 01:10:23;;;;;;;7.10;4.25;;;;;;;;;;5018771;28;20050;-81
2023/01/30 01:12:51;;;;;;;7.80;4.38;;;;;;;;;;5018839;28;20034;-82
2023/01/30 01:15:16;;;;;;;6.65;4.30;;;;;;;;;;5013902;28;20074;-81
2023/01/30 01:17:42;;;;;;;5.53;2.63;;;;;;;;;;5010305;28;20042;-82
2023/01/30 01:20:08;;;;;;;6.85;4.38;;;;;;;;;;5006742;28;20010;-79
2023/01/30 01:22:34;;;;;;;8.10;4.35;;;;;;;;;;5010256;28;20037;-79
2023/01/30 01:24:59;;;;;;;6.95;4.22;;;;;;;;;;4998611;28;20031;-81
2023/01/30 01:27:24;;;;;;;7.80;4.22;;;;;;;;;;4996695;28;20030;-79
2023/01/30 01:29:50;;;;;;;6.50;4.20;;;;;;;;;;4995990;28;20027;-82
2023/01/30 01:32:15;;;;;;;6.60;4.13;;;;;;;;;;4996780;28;20508;-82
2023/01/30 01:34:40;;;;;;;8.35;4.75;;;;;;;;;;4997214;28;20022;-80
2023/01/30 01:37:06;;;;;;;6.13;3.50;;;;;;;;;;4997408;28;20030;-81
2023/01/30 01:42:16;;;;;;;9.00;4.32;;;;;;;;;;4998715;28;20032;-81
2023/01/30 01:45:13;;;;;;;8.35;4.03;;;;;;;;;;4998277;28;20034;-80
2023/01/30 01:48:02;;;;;;;5.50;3.55;;;;;;;;;;5000567;28;20034;-81
2023/01/30 01:50:44;;;;;;;10.27;4.50;;;;;;;;;;5003352;28;20030;-82
2023/01/30 01:53:12;;;;;;;7.38;4.15;;;;;;;;;;5003109;28;20070;-80
2023/01/30 01:55:40;;;;;;;7.18;4.25;;;;;;;;;;5003404;28;20033;-79
2023/01/30 01:58:18;;;;;;;6.93;4.38;;;;;;;;;;5007212;28;20087;-81
2023/01/30 02:00:43;;;;;;;8.43;4.60;;;;;;;;;;5004632;28;20098;-79
2023/01/30 02:03:16;;;;;;;8.02;4.60;;;;;;;;;;5004832;28;20058;-81
2023/01/30 02:05:46;;;;;;;6.82;4.32;;;;;;;;;;5004082;28;20030;-80
2023/01/30 02:08:39;;;;;;;7.20;4.18;;;;;;;;;;5003445;28;20049;-82
2023/01/30 02:11:10;;;;;;;6.88;4.25;;;;;;;;;;5001724;28;20042;-80
2023/01/30 02:13:36;;;;;;;8.40;4.15;;;;;;;;;;5002515;28;20037;-80
2023/01/30 02:16:03;;;;;;;6.95;4.20;;;;;;;;;;5005006;28;20129;-81
2023/01/30 02:18:30;;;;;;;7.55;4.22;;;;;;;;;;5004549;28;20476;-80
2023/01/30 02:20:59;;;;;;;8.50;4.53;;;;;;;;;;5005496;28;20022;-80
2023/01/30 02:24:00;;;;;;;8.98;4.50;;;;;;;;;;5003237;28;20058;-80
2023/01/30 02:26:44;;;;;;;8.25;4.47;;;;;;;;;;5005823;28;20483;-80
2023/01/30 02:29:27;;;;;;;;;;;;;;;;;;5005523;28;20034;-80
2023/01/30 02:32:03;;;;;;;5.82;3.58;;;;;;;;;;5006164;28;19980;-80
2023/01/30 02:34:58;;;;;;;6.78;3.90;;;;;;;;;;5007116;28;20030;-80
2023/01/30 02:37:53;;;;;;;8.80;4.90;;;;;;;;;;5004883;28;20030;-81
2023/01/30 02:40:28;;;;;;;8.52;4.50;;;;;;;;;;5005372;28;20050;-80
2023/01/30 02:43:10;;;;;;;7.80;4.20;;;;;;;;;;5005430;28;20049;-81
2023/01/30 02:46:06;;;;;;;7.68;4.07;;;;;;;;;;5004388;28;20091;-79
2023/01/30 02:48:35;;;;;;;6.63;4.13;;;;;;;;;;5005820;28;20082;-79
2023/01/30 02:51:08;;;;;;;7.85;4.43;;;;;;;;;;5005662;28;20030;-80
2023/01/30 02:53:35;;;;;;;7.50;4.32;;;;;;;;;;5005963;28;20048;-80
2023/01/30 02:56:00;;;;;;;7.45;4.50;;;;;;;;;;5004470;28;20042;-80
2023/01/30 02:58:30;;;;;;;6.93;4.32;;;;;;;;;;5003701;28;20037;-81
2023/01/30 03:01:24;;;;;;;8.05;4.97;;;;;;;;;;5004098;28;20053;-82
2023/01/30 03:04:17;;;;;;;6.25;4.13;;;;;;;;;;5003615;28;20022;-82
2023/01/30 03:07:01;;;;;;;8.93;4.25;;;;;;;;;;4985790;28;20103;-80
2023/01/30 03:09:33;;;;;;;6.88;4.05;;;;;;;;;;5004704;28;20084;-81
2023/01/30 03:12:11;;;;;;;7.43;4.07;;;;;;;;;;5002413;28;20057;-80
2023/01/30 03:14:48;;;;;;;7.03;4.03;;;;;;;;;;5004670;28;20033;-82
2023/01/30 03:17:16;;;;;;;6.38;4.00;;;;;;;;;;5004209;28;20026;-80
2023/01/30 03:19:41;;;;;;;7.57;4.05;;;;;;;;;;5004561;28;20026;-81
2023/01/30 03:22:06;;;;;;;7.47;4.18;;;;;;;;;;5003757;28;20023;-79
2023/01/30 03:24:32;;;;;;;7.85;4.47;;;;;;;;;;5002528;28;20113;-81
2023/01/30 03:27:02;;;;;;;8.98;4.78;;;;;;;;;;5003556;28;20034;-81
2023/01/30 03:29:27;;;;;;;6.75;3.67;;;;;;;;;;5002532;28;20030;-82
2023/01/30 03:31:52;;;;;;;8.75;4.20;;;;;;;;;;5002709;28;20033;-80
2023/01/30 03:34:17;;;;;;;8.00;4.25;;;;;;;;;;5003294;28;20038;-80
2023/01/30 03:36:43;;;;;;;7.20;4.10;;;;;;;;;;5003408;28;20038;-81
2023/01/30 03:39:08;;;;;;;9.25;4.20;;;;;;;;;;5002575;28;20033;-82
2023/01/30 03:41:33;;;;;;;10.40;4.45;;;;;;;;;;5002825;28;20435;-79
2023/01/30 03:43:59;;;;;;;7.03;3.83;;;;;;;;;;5003737;28;20037;-80
2023/01/30 03:46:24;;;;;;;6.30;4.10;;;;;;;;;;5001438;28;20125;-82
2023/01/30 03:48:49;;;;;;;7.20;4.22;;;;;;;;;;5002469;28;20026;-81
2023/01/30 03:51:14;;;;;;;7.30;4.25;;;;;;;;;;5002094;28;20492;-80
2023/01/30 03:53:40;;;;;;;5.95;3.63;;;;;;;;;;5003639;28;20529;-81
2023/01/30 03:56:05;;;;;;;8.32;3.88;;;;;;;;;;5002233;28;20104;-81
2023/01/30 03:58:30;;;;;;;5.32;3.63;;;;;;;;;;5002073;28;20022;-81
2023/01/30 04:00:56;;;;;;;7.68;4.00;;;;;;;;;;5003313;28;20014;-80
2023/01/30 04:03:22;;;;;;;7.55;4.00;;;;;;;;;;5003740;28;20102;-82
2023/01/30 04:05:47;;;;;;;5.90;3.75;;;;;;;;;;5003741;28;20053;-81
2023/01/30 04:08:12;;;;;;;6.85;3.83;;;;;;;;;;5004141;28;20457;-81
2023/01/30 04:10:38;;;;;;;6.28;2.72;;;;;;;;;;5003922;28;20053;-81
2023/01/30 04:13:03;;;;;;;5.88;3.55;;;;;;;;;;5003714;28;20536;-80
2023/01/30 04:15:28;;;;;;;6.15;3.60;;;;;;;;;;5002811;28;20397;-81
2023/01/30 04:17:53;;;;;;;6.18;3.35;;;;;;;;;;5003490;28;20037;-81
2023/01/30 04:20:19;;;;;;;6.15;3.97;;;;;;;;;;5004062;28;20045;-81
2023/01/30 04:22:44;;;;;;;6.40;3.55;;;;;;;;;;5003674;28;20026;-80
2023/01/30 04:25:10;;;;;;;6.10;3.45;;;;;;;;;;5003390;28;20042;-82
2023/01/30 04:27:35;;;;;;;5.78;3.42;;;;;;;;;;5003623;28;20061;-81
2023/01/30 04:30:00;;;;;;;5.15;3.45;;;;;;;;;;5004711;28;20481;-82
2023/01/30 04:32:26;;;;;;;5.05;3.03;;;;;;;;;;5004526;28;20101;-82
2023/01/30 04:34:51;;;;;;;5.40;3.13;;;;;;;;;;5005317;28;20042;-83
2023/01/30 04:37:16;;;;;;;5.75;3.35;;;;;;;;;;5006406;28;20037;-81
2023/01/30 04:39:41;;;;;;;6.47;2.97;;;;;;;;;;5004093;28;20033;-81
2023/01/30 04:42:06;;;;;;;6.25;3.42;;;;;;;;;;5002227;28;20477;-82
2023/01/30 04:44:32;;;;;;;6.40;2.95;;;;;;;;;;5005660;28;20501;-82
2023/01/30 04:46:57;;;;;;;7.53;3.58;;;;;;;;;;5004816;28;20033;-81
2023/01/30 04:49:22;;;;;;;6.32;3.28;;;;;;;;;;5003136;28;20027;-82
2023/01/30 04:51:47;;;;;;;5.20;3.40;;;;;;;;;;5003752;28;20018;-81
2023/01/30 04:54:13;;;;;;;7.53;3.88;;;;;;;;;;5004558;28;20110;-81
2023/01/30 04:56:38;;;;;;;6.97;3.92;;;;;;;;;;5004626;28;20018;-82
2023/01/30 04:59:03;;;;;;;4.40;2.92;;;;;;;;;;5004623;28;20026;-80
2023/01/30 05:01:35;;;;;;;5.40;3.40;;;;;;;;;;5002489;28;20029;-80
2023/01/30 05:04:01;;;;;;;7.53;3.55;;;;;;;;;;5005128;28;20057;-82
2023/01/30 05:06:27;;;;;;;5.63;3.47;;;;;;;;;;5006440;28;20037;-83
2023/01/30 05:08:53;;;;;;;8.52;4.28;;;;;;;;;;5008514;28;20030;-82
2023/01/30 05:11:20;;;;;;;4.40;2.60;;;;;;;;;;5007690;28;20037;-82
2023/01/30 05:13:45;;;;;;;6.28;3.47;;;;;;;;;;5007947;28;20501;-82
2023/01/30 05:16:11;;;;;;;6.90;3.17;;;;;;;;;;5007965;28;20037;-82
2023/01/30 05:18:37;;;;;;;10.65;4.57;;;;;;;;;;5006624;28;20018;-82
2023/01/30 05:21:10;;;;;;;9.88;4.70;;;;;;;;;;5006880;28;20032;-81
2023/01/30 05:23:36;;;;;;;7.68;4.28;;;;;;;;;;5009069;28;20045;-82
2023/01/30 05:26:02;;;;;;;7.82;3.95;;;;;;;;;;5009969;28;20030;-83
2023/01/30 05:28:28;;;;;;;5.90;3.42;;;;;;;;;;5011414;28;20027;-83
2023/01/30 05:30:54;;;;;;;7.50;3.83;;;;;;;;;;5010671;28;20491;-82
2023/01/30 05:33:19;;;;;;;6.30;4.10;;;;;;;;;;5010599;28;20108;-81
2023/01/30 05:35:48;;;;;;;8.73;4.38;;;;;;;;;;5008645;28;20038;-80
2023/01/30 05:38:14;;;;;;;7.72;4.10;;;;;;;;;;5008544;28;20038;-83
2023/01/30 05:40:42;;;;;;;7.22;3.58;;;;;;;;;;5009364;28;20034;-81
2023/01/30 05:43:08;;;;;;;7.70;3.85;;;;;;;;;;5008458;28;20033;-81
2023/01/30 05:45:34;;;;;;;7.15;3.08;;;;;;;;;;5005632;28;20034;-81
2023/01/30 05:47:59;;;;;;;5.05;2.92;;;;;;;;;;5005705;28;20042;-82
2023/01/30 05:50:24;;;;;;;6.15;3.83;;;;;;;;;;5006243;28;20129;-81
2023/01/30 05:52:49;;;;;;;9.65;3.80;;;;;;;;;;5007737;28;20022;-82
2023/01/30 05:55:15;;;;;;;5.90;3.30;;;;;;;;;;5007240;28;20030;-79
2023/01/30 05:57:40;;;;;;;4.75;2.95;;;;;;;;;;5006347;28;20022;-82
2023/01/30 06:00:06;;;;;;;6.55;3.40;;;;;;;;;;5006749;28;20023;-79
2023/01/30 06:02:31;;;;;;;6.97;3.90;;;;;;;;;;5007428;28;20118;-80
2023/01/30 06:04:57;;;;;;;6.03;3.45;;;;;;;;;;5007234;28;20393;-80
2023/01/30 06:07:22;;;;;;;11.17;3.63;;;;;;;;;;5006306;28;20033;-79
2023/01/30 06:09:47;;;;;;;7.07;3.67;;;;;;;;;;5007116;28;20264;-81
2023/01/30 06:12:13;;;;;;;8.60;3.70;;;;;;;;;;5005536;28;20022;-81
2023/01/30 06:14:38;;;;;;;7.07;3.95;;;;;;;;;;5006663;28;20026;-79
2023/01/30 06:17:03;;;;;;;7.78;4.13;;;;;;;;;;5003958;28;20030;-80
2023/01/30 06:19:28;;;;;;;6.28;3.70;;;;;;;;;;5003976;28;20073;-81
2023/01/30 06:21:54;;;;;;;4.93;2.90;;;;;;;;;;5004540;28;20019;-82
2023/01/30 06:24:19;;;;;;;6.80;3.83;;;;;;;;;;5003561;28;20037;-80
2023/01/30 06:26:44;;;;;;;6.07;3.80;;;;;;;;;;5005557;28;20556;-81
2023/01/30 06:29:09;;;;;;;4.88;3.08;;;;;;;;;;5004773;28;20042;-81
2023/01/30 06:31:35;;;;;;;8.88;4.03;;;;;;;;;;5005521;28;20034;-81
2023/01/30 06:34:00;;;;;;;4.43;2.58;;;;;;;;;;5003209;28;20033;-79
2023/01/30 06:36:25;;;;;;;6.15;3.65;;;;;;;;;;5004197;28;20027;-81
2023/01/30 06:38:50;;;;;;;6.20;3.50;;;;;;;;;;5004655;28;20022;-79
2023/01/30 06:41:15;;;;;;;6.43;3.65;;;;;;;;;;5005624;28;20065;-81
2023/01/30 06:43:41;;;;;;;6.30;4.07;;;;;;;;;;5005674;28;20161;-80
2023/01/30 06:46:06;;;;;;;5.68;3.20;;;;;;;;;;5003071;28;20026;-80
2023/01/30 06:48:31;;;;;;;7.97;3.53;;;;;;;;;;5004603;28;20384;-81
2023/01/30 06:50:57;;;;;;;6.45;3.53;;;;;;;;;;5004330;28;20038;-82
2023/01/30 06:53:28;;;;;;;5.65;3.58;;;;;;;;;;5006536;28;20037;-81
2023/01/30 06:55:54;;;;;;;6.65;3.85;;;;;;;;;;5007859;28;20030;-80
2023/01/30 06:58:19;;;;;;;3.03;1.88;;;;;;;;;;5007581;28;20034;-81
2023/01/30 07:00:44;;;;;;;5.95;3.78;;;;;;;;;;5006526;28;20034;-81
2023/01/30 07:03:11;;;;;;;6.73;3.13;;;;;;;;;;5005308;28;20026;-81
2023/01/30 07:05:38;;;;;;;5.50;3.42;;;;;;;;;;5004589;28;20264;-80
2023/01/30 07:08:03;;;;;;;6.32;3.33;;;;;;;;;;5004243;28;20026;-79
2023/01/30 07:10:31;;;;;;;5.43;3.47;;;;;;;;;;5002251;28;20038;-81
2023/01/30 07:12:56;;;;;;;4.32;2.28;;;;;;;;;;5003296;28;20032;-81
2023/01/30 07:15:21;;;;;;;6.90;3.17;;;;;;;;;;5003214;28;20462;-83
2023/01/30 07:17:46;;;;;;;6.15;3.75;;;;;;;;;;5002723;28;20057;-81
2023/01/30 07:20:12;;;;;;;5.75;3.67;;;;;;;;;;5002338;28;20105;-81
2023/01/30 07:22:37;;;;;;;7.13;3.75;;;;;;;;;;5002207;28;20105;-80
2023/01/30 07:25:03;;;;;;;6.78;3.75;;;;;;;;;;5001113;28;20030;-81
2023/01/30 07:27:28;;;;;;;6.93;4.35;;;;;;;;;;5002063;28;20018;-82
2023/01/30 07:29:53;;;;;;;6.95;3.88;;;;;;;;;;5003018;28;20030;-80
2023/01/30 07:32:19;;;;;;;5.40;3.40;;;;;;;;;;5004088;28;20026;-80
2023/01/30 07:34:47;;;;;;;4.95;2.95;;;;;;;;;;5005743;28;20032;-80
2023/01/30 07:37:13;;;;;;;6.28;3.83;;;;;;;;;;5002779;28;20524;-80
2023/01/30 07:39:38;;;;;;;4.88;2.85;;;;;;;;;;5002919;28;20026;-81
2023/01/30 07:42:04;;;;;;;5.07;3.33;;;;;;;;;;5003581;28;20023;-81
2023/01/30 07:44:29;;;;;;;4.75;2.90;;;;;;;;;;5000217;28;20046;-82
2023/01/30 07:46:55;;;;;;;5.20;3.22;;;;;;;;;;5002893;28;20397;-81
2023/01/30 07:49:20;;;;;;;4.57;3.03;;;;;;;;;;5002527;28;20054;-80
2023/01/30 07:51:48;;;;;;;6.38;2.95;;;;;;;;;;5004771;28;20045;-80
2023/01/30 07:54:13;;;;;;;6.15;3.28;;;;;;;;;;5003675;28;20034;-81
2023/01/30 07:56:39;;;;;;;4.78;2.88;;;;;;;;;;5004216;28;20022;-81
2023/01/30 07:59:04;;;;;;;5.45;3.17;;;;;;;;;;5003931;28;20080;-82
2023/01/30 08:01:30;;;;;;;5.75;2.72;;;;;;;;;;5002646;28;20026;-80
2023/01/30 08:03:56;;;;;;;6.35;2.50;;;;;;;;;;5002825;28;20069;-82
2023/01/30 08:06:21;;;;;;;4.32;2.70;;;;;;;;;;5004095;28;20485;-80
2023/01/30 08:08:46;;;;;;;4.47;2.60;;;;;;;;;;5001876;28;20026;-80
2023/01/30 08:11:12;;;;;;;5.60;2.88;;;;;;;;;;5004026;28;20033;-82
2023/01/30 08:13:37;;;;;;;2.78;1.92;;;;;;;;;;5005054;28;20030;-82
2023/01/30 08:16:05;;;;;;;4.60;2.80;;;;;;;;;;5003591;28;20026;-81
2023/01/30 08:18:31;;;;;;;5.00;2.42;;;;;;;;;;5003562;28;20037;-80
2023/01/30 08:20:58;;;;;;;3.85;2.20;;;;;;;;;;5003555;28;20065;-80
2023/01/30 08:23:23;;;;;;;3.25;2.30;;;;;;;;;;5005039;28;20026;-81
2023/01/30 08:25:48;;;;;;;5.50;2.78;;;;;;;;;;5014585;28;20034;-81
2023/01/30 08:28:14;;;;;;;4.90;2.85;;;;;;;;;;5018132;28;20078;-81
2023/01/30 08:30:40;;;;;;;4.13;2.42;;;;;;;;;;5018911;28;20041;-81
2023/01/30 08:33:05;;;;;;;3.92;2.65;;;;;;;;;;5015723;28;20078;-79
2023/01/30 08:35:31;;;;;;;4.43;2.37;;;;;;;;;;5018254;28;20010;-81
2023/01/30 08:37:56;;;;;;;4.32;2.65;;;;;;;;;;5019143;28;20252;-81
2023/01/30 08:40:21;;;;;;;3.75;2.53;;;;;;;;;;5018649;28;20038;-81
2023/01/30 08:42:46;;;;;;;3.30;1.80;;;;;;;;;;5017543;28;20042;-80
2023/01/30 08:45:12;;;;;;;3.30;2.30;;;;;;;;;;5018281;28;20157;-80
2023/01/30 08:47:37;;;;;;;3.40;1.85;;;;;;;;;;5018943;28;20086;-80
2023/01/30 08:50:03;;;;;;;4.40;2.40;;;;;;;;;;5018944;28;20014;-80
2023/01/30 08:52:30;;;;;;;3.03;1.65;;;;;;;;;;5008411;28;20034;-82
2023/01/30 08:54:55;;;;;;;4.10;2.00;;;;;;;;;;4998051;28;20034;-80
2023/01/30 08:57:21;;;;;;;3.10;1.97;;;;;;;;;;4998289;28;20110;-81
2023/01/30 08:59:46;;;;;;;2.53;1.20;;;;;;;;;;4998571;28;20295;-82
2023/01/30 09:02:12;;;;;;;2.60;1.77;;;;;;;;;;4996695;28;20022;-80
2023/01/30 09:04:37;;;;;;;2.97;1.48;;;;;;;;;;4997811;28;20124;-79
2023/01/30 09:07:02;;;;;;;2.60;1.45;;;;;;;;;;4998355;28;20030;-81
2023/01/30 09:09:28;;;;;;;2.22;1.40;;;;;;;;;;4996787;28;20018;-81
2023/01/30 09:11:54;;;;;;;2.60;1.70;;;;;;;;;;4997604;28;20023;-80
2023/01/30 09:14:19;;;;;;;2.97;1.90;;;;;;;;;;4999471;28;20026;-80
2023/01/30 09:16:54;;;;;;;1.90;1.40;;;;;;;;;;4999705;28;20026;-81
2023/01/30 09:19:21;;;;;;;2.53;1.38;;;;;;;;;;5002088;28;20030;-81
2023/01/30 09:21:48;;;;;;;2.05;1.35;;;;;;;;;;5001086;28;20158;-83
2023/01/30 09:24:13;;;;;;;1.95;1.30;;;;;;;;;;4999483;28;20026;-79
2023/01/30 09:26:43;;;;;;;2.63;1.35;;;;;;;;;;5000759;28;20041;-80
2023/01/30 09:29:08;;;;;;;2.28;1.60;;;;;;;;;;5002358;28;20057;-84
2023/01/30 09:31:34;;;;;;;2.95;1.58;;;;;;;;;;5001304;28;20030;-80
2023/01/30 09:33:59;;;;;;;3.20;1.50;;;;;;;;;;5003257;28;20053;-82
2023/01/30 09:36:24;;;;;;;3.28;1.50;;;;;;;;;;5000843;28;20019;-81
2023/01/30 09:38:49;;;;;;;2.33;1.48;;;;;;;;;;5001026;28;20026;-79
2023/01/30 09:41:32;;;;;;;2.20;1.47;;;;;;;;;;5000522;28;20063;-81
2023/01/30 09:44:29;;;;;;;2.83;1.80;;;;;;;;;;5002593;28;20256;-80
2023/01/30 09:47:20;;;;;;;2.20;1.40;;;;;;;;;;5005199;28;20037;-80
2023/01/30 09:49:58;;;;;;;1.45;1.00;;;;;;;;;;5004187;28;20101;-81
2023/01/30 09:52:29;;;;;;;2.00;1.42;;;;;;;;;;5002684;28;20033;-81
2023/01/30 09:55:03;;;;;;;2.45;1.40;;;;;;;;;;5001896;28;20110;-80
2023/01/30 09:57:28;;;;;;;;;;;;;;;;;;5002835;28;20027;-80
2023/01/30 10:00:21;;;;;;;3.77;1.20;;;;;;;;;;5001786;28;20024;-80
2023/01/30 10:03:11;;;;;;;1.80;1.27;;;;;;;;;;5002789;28;20256;-80
2023/01/30 10:05:39;;;;;;;5.00;1.73;;;;;;;;;;5003302;28;20048;-80
2023/01/30 10:08:10;;;;;;;2.13;1.30;;;;;;;;;;5004094;28;20449;-78
2023/01/30 10:10:52;;;;;;;1.90;1.30;;;;;;;;;;5005818;28;20482;-82
2023/01/30 10:13:34;;;;;;;2.15;1.42;;;;;;;;;;5005087;28;20026;-80
2023/01/30 10:16:17;;;;;;;1.80;1.00;;;;;;;;;;5005297;28;20030;-81
2023/01/30 10:19:00;;;;;;;1.58;0.77;;;;;;;;;;5005946;28;20026;-81
2023/01/30 10:21:50;;;;;;;1.98;1.30;;;;;;;;;;5009618;28;20018;-82
2023/01/30 10:24:40;;;;;;;3.55;1.17;;;;;;;;;;5008364;28;20042;-81
2023/01/30 10:27:15;;;;;;;1.13;1.00;;;;;;;;;;5010561;28;20030;-81
2023/01/30 10:29:46;;;;;;;1.92;1.27;;;;;;;;;;5008510;28;20038;-82
2023/01/30 10:32:16;;;;;;;4.63;0.80;;;;;;;;;;5008734;28;20074;-83
2023/01/30 10:34:49;;;;;;;0.98;0.75;;;;;;;;;;5010109;28;20041;-83
2023/01/30 10:37:25;;;;;;;1.20;0.90;;;;;;;;;;5010291;28;20505;-82
2023/01/30 10:40:12;;;;;;;0.68;0.60;;;;;;;;;;5009719;28;20077;-82
2023/01/30 10:42:44;;;;;;;1.70;1.10;;;;;;;;;;5004746;28;20085;-83
2023/01/30 10:45:19;;;;;;;1.00;0.90;;;;;;;;;;5008779;28;20023;-83
2023/01/30 10:48:18;;;;;;;1.40;1.20;;;;;;;;;;5007101;28;20026;-82
2023/01/30 10:50:50;;;;;;;1.25;1.10;;;;;;;;;;5009757;28;20038;-82
2023/01/30 10:53:21;;;;;;;1.67;1.00;;;;;;;;;;5010165;28;20065;-82
2023/01/30 10:55:51;;;;;;;1.08;0.85;;;;;;;;;;5008650;28;20022;-83
2023/01/30 10:58:25;;;;;;;1.70;1.10;;;;;;;;;;5008805;28;20089;-82
2023/01/30 11:00:53;;;;;;;1.92;1.13;;;;;;;;;;5009519;28;20018;-82
2023/01/30 11:03:24;;;;;;;1.35;0.98;;;;;;;;;;5010916;28;20037;-83
2023/01/30 11:06:01;;;;;;;1.38;0.88;;;;;;;;;;5010521;28;20033;-83
2023/01/30 11:08:32;;;;;;;1.30;1.10;;;;;;;;;;5008348;28;20046;-83
2023/01/30 11:10:58;;;;;;;1.40;1.00;;;;;;;;;;5010666;28;20022;-83
2023/01/30 11:13:30;;;;;;;1.52;1.05;;;;;;;;;;5011464;28;20026;-82
2023/01/30 11:15:59;;;;;;;1.45;1.20;;;;;;;;;;5011415;28;20040;-81
2023/01/30 11:18:25;;;;;;;1.35;0.95;;;;;;;;;;5010186;28;20032;-83
2023/01/30 11:21:01;;;;;;;1.20;0.95;;;;;;;;;;5008592;28;20553;-81
2023/01/30 11:23:38;;;;;;;0.98;0.82;;;;;;;;;;5010480;28;20036;-82
2023/01/30 11:26:03;;;;;;;0.95;0.82;;;;;;;;;;5010643;28;20065;-84
2023/01/30 11:28:49;;;;;;;1.98;1.10;;;;;;;;;;5010499;28;20026;-83
2023/01/30 11:31:25;;;;;;;1.42;0.93;;;;;;;;;;5010355;28;20048;-81
2023/01/30 11:34:02;;;;;;;1.35;0.90;;;;;;;;;;5010515;28;20090;-82
2023/01/30 11:36:34;;;;;;;1.17;0.88;;;;;;;;;;5009544;28;20056;-83
2023/01/30 11:39:17;;;;;;;1.27;1.02;;;;;;;;;;5008721;28;20027;-82
2023/01/30 11:42:08;;;;;;;1.73;1.13;;;;;;;;;;5007665;28;20453;-81
2023/01/30 11:44:39;;;;;;;1.80;1.20;;;;;;;;;;5005979;28;20089;-80
2023/01/30 11:47:16;;;;;;;1.67;1.13;;;;;;;;;;5007429;28;20062;-81
2023/01/30 11:49:51;;;;;;;1.20;1.05;;;;;;;;;;5005699;28;20521;-81
2023/01/30 11:52:21;;;;;;;1.38;1.10;;;;;;;;;;5004382;28;20023;-81
2023/01/30 11:54:48;;;;;;;1.70;1.00;;;;;;;;;;5005519;28;20022;-81
2023/01/30 11:57:16;;;;;;;1.92;1.30;;;;;;;;;;5007258;28;20037;-82
2023/01/30 11:59:47;;;;;;;2.13;1.35;;;;;;;;;;5005883;28;20481;-82
2023/01/30 12:02:22;;;;;;;1.17;0.98;;;;;;;;;;5005209;28;20037;-79
2023/01/30 12:04:52;;;;;;;1.85;1.27;;;;;;;;;;5004477;28;20042;-81
2023/01/30 12:07:27;;;;;;;1.80;0.95;;;;;;;;;;5005128;28;20034;-82
2023/01/30 12:09:53;;;;;;;1.65;1.25;;;;;;;;;;5003549;28;20408;-81
2023/01/30 12:12:47;;;;;;;2.03;1.50;;;;;;;;;;5005049;28;20026;-83
2023/01/30 12:15:24;;;;;;;1.65;1.00;;;;;;;;;;5003384;28;20026;-81
2023/01/30 12:18:17;;;;;;;2.17;1.20;;;;;;;;;;5004527;28;20037;-84
2023/01/30 12:20:57;;;;;;;1.70;0.98;;;;;;;;;;5005463;28;20101;-82
2023/01/30 12:23:28;;;;;;;1.73;1.20;;;;;;;;;;5003022;28;20022;-82
2023/01/30 12:25:53;;;;;;;2.63;1.30;;;;;;;;;;5006480;28;20030;-81
2023/01/30 12:28:37;;;;;;;2.67;1.10;;;;;;;;;;5005017;28;20141;-80
2023/01/30 12:31:18;;;;;;;2.50;1.30;;;;;;;;;;5004309;28;20034;-81
2023/01/30 12:33:44;;;;;;;1.33;0.70;;;;;;;;;;5005486;28;20038;-83
2023/01/30 12:36:31;;;;;;;0.73;0.60;;;;;;;;;;5003898;28;20086;-83
2023/01/30 12:39:10;;;;;;;1.48;1.10;;;;;;;;;;5003991;28;20477;-82
2023/01/30 12:41:54;;;;;;;1.48;1.10;;;;;;;;;;5004355;28;20446;-80
2023/01/30 12:44:44;;;;;;;1.10;0.98;;;;;;;;;;5004070;28;20030;-82
2023/01/30 12:47:30;;;;;;;2.00;1.25;;;;;;;;;;5003861;28;20441;-81
2023/01/30 12:50:22;;;;;;;1.75;0.98;;;;;;;;;;5003961;28;20374;-81
2023/01/30 12:52:56;;;;;;;3.58;1.20;;;;;;;;;;5004603;28;20042;-83
2023/01/30 12:55:40;;;;;;;1.88;1.13;;;;;;;;;;5005822;28;20485;-81
2023/01/30 12:58:20;;;;;;;2.50;1.50;;;;;;;;;;5006318;28;20129;-82
2023/01/30 13:00:53;;;;;;;1.27;1.10;;;;;;;;;;5006458;28;20058;-81
2023/01/30 13:03:31;;;;;;;2.67;1.70;;;;;;;;;;5004995;28;20117;-80
2023/01/30 13:06:09;;;;;;;4.55;1.45;;;;;;;;;;5004695;28;20018;-80
2023/01/30 13:09:03;;;;;;;2.22;1.42;;;;;;;;;;5005805;28;20030;-81
2023/01/30 13:11:34;;;;;;;1.88;1.50;;;;;;;;;;5004620;28;20109;-82
2023/01/30 13:14:37;;;;;;;1.98;1.30;;;;;;;;;;5002719;28;20073;-82
2023/01/30 13:17:36;;;;;;;5.55;1.30;;;;;;;;;;5003866;28;20038;-82
2023/01/30 13:20:17;;;;;;;2.38;1.20;;;;;;;;;;5003326;28;20031;-82
2023/01/30 13:23:16;;;;;;;1.92;1.30;;;;;;;;;;5003182;28;20485;-81
2023/01/30 13:26:07;;;;;;;3.65;1.40;;;;;;;;;;4997709;28;20042;-80
2023/01/30 13:28:51;;;;;;;2.60;1.25;;;;;;;;;;4999499;28;20046;-81
2023/01/30 13:31:20;;;;;;;2.85;1.60;;;;;;;;;;5003041;28;20027;-79
2023/01/30 13:34:03;;;;;;;1.13;0.88;;;;;;;;;;5004894;28;20053;-81
2023/01/30 13:36:50;;;;;;;5.28;1.38;;;;;;;;;;4994555;28;20050;-76
2023/01/30 13:39:24;;;;;;;2.67;1.30;;;;;;;;;;4994352;28;20026;-77
2023/01/30 13:41:51;;;;;;;;;;;;;;;;;;4996023;28;20027;-78
2023/01/30 13:44:32;;;;;;;2.03;0.93;;;;;;;;;;4997697;28;19909;-77
2023/01/30 13:47:10;;;;;;;2.08;1.10;;;;;;;;;;4998270;28;20434;-77
2023/01/30 13:49:46;;;;;;;0.73;0.68;;;;;;;;;;4998935;28;20033;-78
2023/01/30 13:52:26;;;;;;;1.40;0.90;;;;;;;;;;4999649;28;20069;-77
2023/01/30 13:54:59;;;;;;;4.20;1.10;;;;;;;;;;5008254;28;20038;-76
2023/01/30 13:58:02;;;;;;;5.13;1.30;;;;;;;;;;5017197;28;20037;-77
2023/01/30 14:00:33;;;;;;;3.25;1.15;;;;;;;;;;5014141;28;20098;-77
2023/01/30 14:03:04;;;;;;;2.95;1.20;;;;;;;;;;5010783;28;20023;-76
2023/01/30 14:05:51;;;;;;;5.75;1.27;;;;;;;;;;4999338;28;20061;-76
2023/01/30 14:08:24;;;;;;;2.08;1.00;;;;;;;;;;5001029;28;20030;-84
2023/01/30 14:10:50;;;;;;;2.42;0.98;;;;;;;;;;5001843;28;20022;-83
2023/01/30 14:13:16;;;;;;;1.80;1.30;;;;;;;;;;5002406;28;20088;-80
2023/01/30 14:15:53;;;;;;;4.65;1.20;;;;;;;;;;5004945;28;20101;-81
2023/01/30 14:18:22;;;;;;;1.75;0.90;;;;;;;;;;5004990;28;20030;-81
2023/01/30 14:20:51;;;;;;;1.40;1.00;;;;;;;;;;5006418;28;20033;-82
2023/01/30 14:23:35;;;;;;;6.50;1.40;;;;;;;;;;5000961;28;20125;-80
2023/01/30 14:26:00;;;;;;;2.63;1.05;;;;;;;;;;5004205;28;20068;-80
2023/01/30 14:28:28;;;;;;;1.80;0.93;;;;;;;;;;5003119;28;20030;-81
2023/01/30 14:30:57;;;;;;;3.63;1.20;;;;;;;;;;5006400;28;20022;-81
2023/01/30 14:33:23;;;;;;;3.65;1.20;;;;;;;;;;5007426;28;20138;-80
2023/01/30 14:36:13;;;;;;;4.00;1.60;;;;;;;;;;5007097;28;20049;-80
2023/01/30 14:38:40;;;;;;;0.77;0.65;;;;;;;;;;5007667;28;20260;-82
2023/01/30 14:41:07;;;;;;;1.40;0.90;;;;;;;;;;5005273;28;20018;-81
2023/01/30 14:43:42;;;;;;;3.53;1.40;;;;;;;;;;5008463;28;20108;-82
2023/01/30 14:46:16;;;;;;;4.03;1.20;;;;;;;;;;5008113;28;20062;-80
2023/01/30 14:48:52;;;;;;;2.97;1.23;;;;;;;;;;5006860;28;20041;-81
2023/01/30 14:51:34;;;;;;;5.20;1.30;;;;;;;;;;5003912;28;20034;-80
2023/01/30 14:54:22;;;;;;;4.25;1.30;;;;;;;;;;5004912;28;20033;-80
2023/01/30 14:56:53;;;;;;;3.40;1.20;;;;;;;;;;5004653;28;20030;-80
2023/01/30 14:59:54;;;;;;;2.60;0.95;;;;;;;;;;5003315;28;20069;-81
2023/01/30 15:02:26;;;;;;;3.55;1.02;;;;;;;;;;4994418;28;20042;-81
2023/01/30 15:05:01;;;;;;;5.55;1.30;;;;;;;;;;5004115;28;20045;-80
2023/01/30 15:07:36;;;;;;;2.17;1.02;;;;;;;;;;5005632;28;20034;-80
2023/01/30 15:10:08;;;;;;;1.02;0.70;;;;;;;;;;5008288;28;20034;-80
2023/01/30 15:13:08;;;;;;;2.58;1.13;;;;;;;;;;5005725;28;20027;-81
2023/01/30 15:16:07;;;;;;;2.85;0.93;;;;;;;;;;5007485;28;20037;-81